Time;durP1;ratioP1;P1;durP2;ratioP2;P2;SDS_P1;SDS_P2;PMS_P1;PMS_P2;Temp;Humidity;BMP_temperature;BMP_pressure;BME280_temperature;BME280_humidity;BME280_pressure;Samples;Min_cycle;Max_cycle;Signal;HPM_P1;HPM_P2
2023/10/03 00:01:12;;;;;;;7.07;4.55;;;21.40;96.70;;;;;;4998077;28;20415;-77
2023/10/03 00:03:40;;;;;;;7.55;4.35;;;21.40;96.70;;;;;;5005340;28;20569;-78
2023/10/03 00:06:09;;;;;;;6.38;4.25;;;21.40;96.70;;;;;;5010693;28;20048;-78
2023/10/03 00:08:38;;;;;;;5.00;4.05;;;21.40;96.70;;;;;;5005264;28;20184;-78
2023/10/03 00:11:16;;;;;;;5.47;4.65;;;21.30;96.70;;;;;;5010373;28;20056;-78
2023/10/03 00:13:45;;;;;;;4.90;4.40;;;21.10;96.70;;;;;;5011484;28;20050;-78
2023/10/03 00:16:15;;;;;;;4.90;4.20;;;21.10;96.70;;;;;;4987323;28;20050;-78
2023/10/03 00:18:43;;;;;;;9.10;4.75;;;21.10;96.70;;;;;;5006440;28;20456;-78
2023/10/03 00:21:12;;;;;;;8.52;4.72;;;21.10;96.70;;;;;;5005977;28;20066;-77
2023/10/03 00:23:40;;;;;;;9.45;4.10;;;21.10;96.70;;;;;;5006152;28;20141;-78
2023/10/03 00:26:15;;;;;;;5.05;3.88;;;21.30;96.70;;;;;;5005777;28;20053;-81
2023/10/03 00:28:45;;;;;;;10.88;4.78;;;21.50;96.70;;;;;;5003841;28;20136;-81
2023/10/03 00:31:15;;;;;;;7.20;5.07;;;21.30;96.70;;;;;;5009964;28;20618;-82
2023/10/03 00:33:43;;;;;;;9.77;4.47;;;21.10;96.70;;;;;;4990772;28;20053;-81
2023/10/03 00:36:16;;;;;;;6.20;4.47;;;21.00;96.70;;;;;;5008396;28;20042;-81
2023/10/03 00:38:45;;;;;;;8.60;5.35;;;20.80;96.70;;;;;;5007398;28;20542;-82
2023/10/03 00:41:13;;;;;;;6.50;4.63;;;20.70;96.70;;;;;;5006906;28;20045;-81
2023/10/03 00:43:52;;;;;;;8.10;4.65;;;20.80;96.70;;;;;;5006508;28;20081;-81
2023/10/03 00:46:30;;;;;;;7.85;4.38;;;20.80;96.70;;;;;;5004826;28;20050;-82
2023/10/03 00:49:05;;;;;;;5.05;4.28;;;20.70;96.70;;;;;;5003545;28;20053;-81
2023/10/03 00:51:35;;;;;;;5.50;4.90;;;20.70;96.70;;;;;;4997583;28;20077;-81
2023/10/03 00:54:04;;;;;;;7.05;4.72;;;20.70;96.70;;;;;;5040606;28;20042;-82
2023/10/03 00:56:32;;;;;;;5.15;4.05;;;20.80;96.70;;;;;;4995678;28;20425;-81
2023/10/03 00:59:03;;;;;;;4.85;4.15;;;20.70;96.70;;;;;;5006023;28;20062;-81
2023/10/03 01:01:33;;;;;;;6.05;3.63;;;20.60;96.70;;;;;;5006612;28;20528;-81
2023/10/03 01:04:16;;;;;;;4.70;4.20;;;20.60;96.70;;;;;;5006008;28;20053;-81
2023/10/03 01:06:44;;;;;;;5.03;4.25;;;20.60;96.70;;;;;;4997629;28;20042;-82
2023/10/03 01:09:20;;;;;;;5.70;4.50;;;20.50;96.70;;;;;;4990495;28;20037;-81
2023/10/03 01:11:51;;;;;;;7.22;4.88;;;20.60;96.70;;;;;;5005319;28;20045;-81
2023/10/03 01:14:20;;;;;;;6.70;4.80;;;20.60;96.70;;;;;;5005703;28;20054;-81
2023/10/03 01:16:49;;;;;;;5.68;5.07;;;20.60;96.70;;;;;;5008714;28;20162;-81
2023/10/03 01:19:21;;;;;;;5.82;4.80;;;20.50;96.70;;;;;;4990692;28;20065;-81
2023/10/03 01:21:52;;;;;;;5.68;4.53;;;20.40;96.70;;;;;;4997855;28;20095;-81
2023/10/03 01:24:24;;;;;;;6.95;4.75;;;20.40;96.70;;;;;;5005590;28;20077;-80
2023/10/03 01:26:55;;;;;;;5.90;4.72;;;20.50;96.70;;;;;;5006781;28;20061;-80
2023/10/03 01:29:23;;;;;;;6.63;4.32;;;20.40;96.70;;;;;;5005400;28;20054;-81
2023/10/03 01:31:52;;;;;;;4.55;4.15;;;20.40;96.70;;;;;;4988768;28;20042;-81
2023/10/03 01:34:20;;;;;;;4.20;3.85;;;20.40;96.70;;;;;;5006037;28;20074;-81
2023/10/03 01:36:48;;;;;;;5.53;4.22;;;20.50;96.70;;;;;;5005553;28;20042;-81
2023/10/03 01:39:16;;;;;;;8.93;4.30;;;20.50;96.70;;;;;;5007335;28;20141;-81
2023/10/03 01:41:46;;;;;;;5.90;4.25;;;20.40;96.70;;;;;;5007114;28;20084;-81
2023/10/03 01:44:16;;;;;;;8.00;4.60;;;20.40;96.70;;;;;;5006309;28;20056;-81
2023/10/03 01:46:44;;;;;;;5.10;4.30;;;20.30;96.70;;;;;;5007602;28;20068;-81
2023/10/03 01:49:14;;;;;;;5.35;4.20;;;20.40;96.70;;;;;;5006034;28;20046;-82
2023/10/03 01:51:43;;;;;;;5.97;4.25;;;20.50;96.70;;;;;;5012097;28;20041;-81
2023/10/03 01:54:11;;;;;;;6.50;4.63;;;20.50;96.70;;;;;;4994508;28;20046;-81
2023/10/03 01:56:39;;;;;;;4.60;4.15;;;20.40;96.70;;;;;;5005359;28;20055;-81
2023/10/03 01:59:08;;;;;;;4.47;4.07;;;20.40;96.70;;;;;;5006925;28;20046;-81
2023/10/03 02:01:37;;;;;;;4.32;3.92;;;20.30;96.70;;;;;;5004302;28;20050;-81
2023/10/03 02:04:06;;;;;;;5.18;3.95;;;20.30;96.70;;;;;;5008486;28;20412;-81
2023/10/03 02:06:34;;;;;;;4.55;4.15;;;20.30;96.70;;;;;;5004962;28;20041;-80
2023/10/03 02:09:03;;;;;;;4.68;3.83;;;20.20;96.70;;;;;;5005683;28;20042;-81
2023/10/03 02:11:32;;;;;;;4.82;3.92;;;20.20;96.70;;;;;;5009141;28;20042;-81
2023/10/03 02:14:02;;;;;;;4.82;4.20;;;20.10;96.70;;;;;;5005814;28;20061;-80
2023/10/03 02:16:36;;;;;;;5.55;4.10;;;20.10;96.70;;;;;;5004818;28;20560;-81
2023/10/03 02:19:05;;;;;;;6.63;4.40;;;20.10;96.70;;;;;;4988612;28;20480;-81
2023/10/03 02:21:32;;;;;;;6.88;4.30;;;20.10;96.70;;;;;;5004761;28;20045;-80
2023/10/03 02:24:00;;;;;;;5.47;4.25;;;20.00;96.70;;;;;;5004868;28;20050;-81
2023/10/03 02:26:32;;;;;;;6.78;4.50;;;20.10;96.70;;;;;;5005801;28;20539;-81
2023/10/03 02:29:02;;;;;;;5.55;4.15;;;20.10;96.70;;;;;;5013153;28;20045;-81
2023/10/03 02:31:33;;;;;;;4.95;4.40;;;20.00;96.70;;;;;;5005563;28;20116;-82
2023/10/03 02:34:02;;;;;;;6.20;4.32;;;19.90;96.70;;;;;;5000708;28;20046;-80
2023/10/03 02:36:30;;;;;;;5.97;4.50;;;19.90;96.70;;;;;;5005653;28;20037;-80
2023/10/03 02:39:00;;;;;;;5.07;4.53;;;19.80;96.70;;;;;;5005981;28;20153;-81
2023/10/03 02:41:30;;;;;;;9.00;4.78;;;19.80;96.70;;;;;;5008153;28;20187;-81
2023/10/03 02:43:57;;;;;;;4.50;4.05;;;19.80;96.70;;;;;;5010305;28;20045;-80
2023/10/03 02:46:27;;;;;;;5.30;4.75;;;19.70;96.70;;;;;;4997183;28;20100;-81
2023/10/03 02:48:56;;;;;;;5.85;4.43;;;19.70;96.70;;;;;;5014315;28;20048;-81
2023/10/03 02:51:24;;;;;;;5.65;4.45;;;19.70;96.70;;;;;;4998815;28;20069;-81
2023/10/03 02:53:52;;;;;;;6.65;4.93;;;19.70;96.70;;;;;;4997111;28;20054;-81
2023/10/03 02:56:22;;;;;;;5.68;4.30;;;19.60;96.70;;;;;;5011534;28;20050;-81
2023/10/03 02:58:50;;;;;;;5.93;4.47;;;19.50;96.70;;;;;;4994573;28;20144;-81
2023/10/03 03:01:18;;;;;;;4.90;4.40;;;19.50;96.70;;;;;;5009452;28;20057;-81
2023/10/03 03:03:45;;;;;;;7.53;4.18;;;19.50;96.70;;;;;;4992489;28;20097;-81
2023/10/03 03:06:16;;;;;;;4.57;4.05;;;19.50;96.70;;;;;;5008811;28;20046;-82
2023/10/03 03:08:45;;;;;;;4.95;3.95;;;19.40;96.70;;;;;;4992323;28;20053;-81
2023/10/03 03:11:17;;;;;;;4.80;4.10;;;19.30;96.70;;;;;;5008333;28;20034;-82
2023/10/03 03:13:45;;;;;;;5.18;4.30;;;19.30;96.70;;;;;;5004360;28;20053;-81
2023/10/03 03:16:14;;;;;;;4.93;4.38;;;19.20;96.70;;;;;;5009863;28;20120;-82
2023/10/03 03:18:43;;;;;;;5.75;4.55;;;19.20;96.70;;;;;;5013262;28;20051;-81
2023/10/03 03:21:14;;;;;;;4.85;4.28;;;19.10;96.70;;;;;;5010415;28;20062;-81
2023/10/03 03:26:47;;;;;;;4.75;4.25;;;19.00;96.70;;;;;;4980484;28;20041;-81
2023/10/03 03:29:21;;;;;;;5.32;3.83;;;19.00;96.70;;;;;;4957938;28;20050;-81
2023/10/03 03:31:50;;;;;;;6.35;4.45;;;18.90;96.70;;;;;;4971000;28;20193;-81
2023/10/03 03:34:21;;;;;;;4.78;3.90;;;18.90;96.70;;;;;;4987296;28;20080;-82
2023/10/03 03:36:54;;;;;;;4.93;4.40;;;18.90;96.70;;;;;;4983801;28;20069;-78
2023/10/03 03:39:26;;;;;;;6.13;4.32;;;18.90;96.70;;;;;;4984809;28;20062;-78
2023/10/03 03:41:55;;;;;;;8.73;4.38;;;18.90;96.70;;;;;;4984232;28;20042;-78
2023/10/03 03:44:25;;;;;;;5.65;4.55;;;18.90;96.70;;;;;;4977845;28;20073;-78
2023/10/03 03:46:53;;;;;;;5.05;3.97;;;18.90;96.70;;;;;;4965711;28;20043;-79
2023/10/03 03:49:23;;;;;;;9.35;4.65;;;18.90;96.70;;;;;;4950165;28;20042;-79
2023/10/03 03:51:52;;;;;;;5.25;4.20;;;18.90;96.70;;;;;;4982033;28;20061;-78
2023/10/03 03:54:20;;;;;;;7.25;3.92;;;18.90;96.70;;;;;;4984508;28;20042;-78
2023/10/03 03:56:50;;;;;;;5.47;4.13;;;18.80;96.70;;;;;;4982923;28;20068;-79
2023/10/03 03:59:18;;;;;;;7.22;4.38;;;18.80;96.70;;;;;;4979020;28;20056;-79
2023/10/03 04:01:46;;;;;;;5.30;4.18;;;18.80;96.70;;;;;;4988235;28;20058;-78
2023/10/03 04:04:14;;;;;;;6.53;4.28;;;18.80;96.70;;;;;;4982396;28;20156;-79
2023/10/03 04:06:42;;;;;;;6.90;4.15;;;18.80;96.70;;;;;;5009615;28;20536;-80
2023/10/03 04:09:10;;;;;;;4.90;4.25;;;18.80;96.70;;;;;;5005877;28;20159;-78
2023/10/03 04:11:39;;;;;;;5.13;4.03;;;18.80;96.70;;;;;;5006157;28;20140;-79
2023/10/03 04:14:09;;;;;;;5.93;4.97;;;18.80;96.70;;;;;;5005536;28;20048;-80
2023/10/03 04:16:40;;;;;;;7.00;4.30;;;18.70;96.70;;;;;;5011101;28;20056;-78
2023/10/03 04:19:10;;;;;;;6.38;4.20;;;18.60;96.70;;;;;;5005348;28;20056;-78
2023/10/03 04:21:40;;;;;;;5.13;4.18;;;18.50;96.70;;;;;;4988737;28;20451;-79
2023/10/03 04:24:11;;;;;;;6.28;3.92;;;18.40;96.70;;;;;;4996489;28;20042;-78
2023/10/03 04:26:42;;;;;;;5.03;3.78;;;18.30;96.70;;;;;;5006670;28;20613;-78
2023/10/03 04:29:13;;;;;;;4.30;3.90;;;18.30;96.70;;;;;;5004848;28;20077;-79
2023/10/03 04:31:44;;;;;;;4.45;3.95;;;18.30;96.70;;;;;;4989507;28;20096;-78
2023/10/03 04:34:16;;;;;;;4.80;3.95;;;18.30;96.70;;;;;;5007078;28;20551;-78
2023/10/03 04:36:45;;;;;;;5.05;3.80;;;18.20;96.70;;;;;;5002889;28;20065;-78
2023/10/03 04:39:13;;;;;;;6.78;4.05;;;18.20;96.70;;;;;;5005384;28;20046;-78
2023/10/03 04:41:43;;;;;;;5.82;4.00;;;18.20;96.70;;;;;;5007365;28;20439;-78
2023/10/03 04:44:15;;;;;;;5.20;4.50;;;18.30;96.70;;;;;;5007298;28;20435;-79
2023/10/03 04:46:46;;;;;;;6.95;5.22;;;18.30;96.70;;;;;;5008010;28;20460;-79
2023/10/03 04:49:15;;;;;;;6.75;4.32;;;18.30;96.70;;;;;;5005145;28;20045;-79
2023/10/03 04:51:46;;;;;;;6.93;4.05;;;18.30;96.70;;;;;;5004793;28;20662;-79
2023/10/03 04:54:16;;;;;;;5.13;4.13;;;18.40;96.70;;;;;;5024687;28;20495;-78
2023/10/03 04:56:45;;;;;;;4.63;4.15;;;18.30;96.70;;;;;;5007008;28;20128;-78
2023/10/03 04:59:15;;;;;;;4.90;4.40;;;18.20;96.70;;;;;;5005930;28;20033;-78
2023/10/03 05:01:43;;;;;;;5.13;4.22;;;18.20;96.70;;;;;;5005318;28;20137;-79
2023/10/03 05:04:12;;;;;;;5.88;3.90;;;18.10;96.70;;;;;;5004324;28;20120;-79
2023/10/03 05:06:42;;;;;;;8.23;4.47;;;18.20;96.70;;;;;;5007287;28;20530;-78
2023/10/03 05:09:11;;;;;;;6.28;4.18;;;18.30;96.70;;;;;;5004787;28;20065;-79
2023/10/03 05:11:41;;;;;;;6.05;4.68;;;18.20;96.70;;;;;;4987398;28;20054;-78
2023/10/03 05:14:12;;;;;;;7.10;4.15;;;18.20;96.70;;;;;;5003397;28;20049;-78
2023/10/03 05:16:41;;;;;;;5.80;3.92;;;18.00;96.70;;;;;;5008376;28;20068;-79
2023/10/03 05:19:09;;;;;;;7.78;4.22;;;18.00;96.70;;;;;;5007474;28;20559;-79
2023/10/03 05:21:38;;;;;;;8.27;4.45;;;18.00;96.70;;;;;;5009398;28;20096;-78
2023/10/03 05:24:10;;;;;;;9.20;4.45;;;17.90;96.70;;;;;;4989294;28;20408;-79
2023/10/03 05:26:38;;;;;;;11.07;4.80;;;18.00;96.70;;;;;;4981509;28;20103;-79
2023/10/03 05:29:07;;;;;;;9.20;4.35;;;18.10;96.70;;;;;;5005926;28;20056;-79
2023/10/03 05:31:37;;;;;;;5.85;3.80;;;18.00;96.70;;;;;;5003623;28;20080;-80
2023/10/03 05:34:07;;;;;;;5.68;4.32;;;18.10;96.70;;;;;;5003460;28;20515;-78
2023/10/03 05:36:35;;;;;;;6.88;4.40;;;18.20;96.70;;;;;;5006052;28;20129;-78
2023/10/03 05:39:06;;;;;;;7.22;4.45;;;18.20;96.70;;;;;;4987932;28;20377;-78
2023/10/03 05:41:34;;;;;;;5.72;3.97;;;18.20;96.70;;;;;;5003775;28;20053;-79
2023/10/03 05:44:03;;;;;;;5.32;4.20;;;18.10;96.70;;;;;;4985031;28;20408;-78
2023/10/03 05:46:32;;;;;;;7.22;4.47;;;18.10;96.70;;;;;;4993060;28;20084;-79
2023/10/03 05:49:00;;;;;;;6.72;4.20;;;18.10;96.70;;;;;;4995459;28;20073;-78
2023/10/03 05:51:30;;;;;;;4.88;3.53;;;18.20;96.70;;;;;;5005539;28;20164;-79
2023/10/03 05:53:59;;;;;;;5.50;4.10;;;18.10;96.70;;;;;;5004344;28;20046;-78
2023/10/03 05:56:27;;;;;;;5.90;4.05;;;18.20;96.70;;;;;;4997171;28;20129;-79
2023/10/03 05:58:55;;;;;;;7.05;4.15;;;18.20;96.70;;;;;;5003942;28;20049;-79
2023/10/03 06:01:23;;;;;;;5.28;4.28;;;18.30;96.70;;;;;;5003001;28;20479;-79
2023/10/03 06:03:51;;;;;;;6.70;4.25;;;18.30;96.70;;;;;;5003544;28;20046;-79
2023/10/03 06:06:21;;;;;;;6.28;3.95;;;18.20;96.70;;;;;;5005333;28;20054;-80
2023/10/03 06:08:50;;;;;;;10.13;4.40;;;18.20;96.70;;;;;;4987789;28;20050;-79
2023/10/03 06:11:18;;;;;;;6.97;4.57;;;18.20;96.70;;;;;;4995015;28;20116;-81
2023/10/03 06:13:46;;;;;;;7.93;4.72;;;18.40;96.70;;;;;;5003794;28;20042;-79
2023/10/03 06:16:14;;;;;;;10.55;5.82;;;18.40;96.70;;;;;;5003261;28;20564;-79
2023/10/03 06:18:43;;;;;;;7.30;5.15;;;18.40;96.70;;;;;;5003574;28;20085;-79
2023/10/03 06:21:11;;;;;;;9.68;5.53;;;18.40;96.70;;;;;;5004671;28;20137;-79
2023/10/03 06:23:39;;;;;;;8.70;5.60;;;18.30;96.70;;;;;;5004804;28;20064;-79
2023/10/03 06:26:08;;;;;;;12.77;6.47;;;18.30;96.70;;;;;;4990896;28;21397;-79
2023/10/03 06:28:36;;;;;;;10.38;6.60;;;18.40;96.70;;;;;;5012096;28;20104;-81
2023/10/03 06:31:04;;;;;;;11.13;5.63;;;18.30;96.70;;;;;;5013724;28;20061;-79
2023/10/03 06:33:33;;;;;;;8.35;6.15;;;18.40;96.70;;;;;;5009847;28;20046;-79
2023/10/03 06:36:02;;;;;;;7.35;5.20;;;18.40;96.70;;;;;;5008729;28;20130;-78
2023/10/03 06:38:32;;;;;;;8.45;5.40;;;18.40;96.70;;;;;;5007377;28;20757;-80
2023/10/03 06:41:00;;;;;;;6.88;5.40;;;18.40;96.70;;;;;;4990816;28;20081;-80
2023/10/03 06:43:29;;;;;;;8.05;5.78;;;18.50;96.70;;;;;;5007454;28;20056;-78
2023/10/03 06:45:57;;;;;;;10.32;6.18;;;18.60;96.70;;;;;;5006748;28;20547;-80
2023/10/03 06:48:26;;;;;;;13.65;7.55;;;18.70;96.70;;;;;;5008267;28;20146;-85
2023/10/03 06:50:56;;;;;;;15.25;8.23;;;18.80;96.70;;;;;;5011257;28;20038;-78
2023/10/03 06:53:24;;;;;;;14.50;8.50;;;18.80;96.70;;;;;;5002415;28;20491;-78
2023/10/03 06:55:53;;;;;;;14.15;9.23;;;18.90;96.70;;;;;;4990785;28;20088;-79
2023/10/03 06:58:21;;;;;;;19.15;11.00;;;18.90;96.70;;;;;;5010676;28;20046;-78
2023/10/03 07:00:54;;;;;;;20.25;11.90;;;18.90;96.70;;;;;;5016642;28;20080;-80
2023/10/03 07:03:23;;;;;;;16.88;9.40;;;19.00;96.70;;;;;;5014922;28;20045;-78
2023/10/03 07:05:51;;;;;;;23.23;10.90;;;19.10;96.70;;;;;;5007895;28;20050;-79
2023/10/03 07:08:19;;;;;;;24.90;12.30;;;19.10;96.70;;;;;;5008828;28;20042;-78
2023/10/03 07:10:47;;;;;;;33.38;13.80;;;19.10;96.70;;;;;;5006471;28;20073;-78
2023/10/03 07:13:17;;;;;;;33.47;14.13;;;19.20;96.70;;;;;;5006977;28;20136;-80
2023/10/03 07:15:44;;;;;;;36.95;15.75;;;19.30;96.70;;;;;;5022603;28;20053;-80
2023/10/03 07:18:14;;;;;;;37.90;16.60;;;19.30;96.70;;;;;;5007443;28;20561;-78
2023/10/03 07:20:43;;;;;;;35.05;16.55;;;19.20;96.70;;;;;;5007890;28;20672;-79
2023/10/03 07:23:11;;;;;;;34.30;15.73;;;19.20;96.70;;;;;;4992843;28;20038;-79
2023/10/03 07:25:39;;;;;;;29.15;15.10;;;19.30;96.70;;;;;;5010281;28;20384;-79
2023/10/03 07:28:07;;;;;;;28.00;14.00;;;19.40;96.70;;;;;;5014716;28;20041;-83
2023/10/03 07:30:35;;;;;;;24.50;13.02;;;19.40;96.70;;;;;;5006359;28;20042;-80
2023/10/03 07:33:05;;;;;;;25.33;14.05;;;19.50;96.70;;;;;;5006663;28;20042;-79
2023/10/03 07:35:37;;;;;;;27.65;15.07;;;19.50;96.70;;;;;;5007048;28;20245;-80
2023/10/03 07:38:05;;;;;;;26.83;14.23;;;19.50;96.70;;;;;;5007458;28;20157;-80
2023/10/03 07:40:33;;;;;;;22.95;12.38;;;19.70;96.70;;;;;;5011036;28;20038;-83
2023/10/03 07:43:02;;;;;;;21.67;12.85;;;19.80;96.70;;;;;;5009975;28;20099;-81
2023/10/03 07:45:30;;;;;;;19.88;12.23;;;19.70;96.70;;;;;;4991524;28;20441;-81
2023/10/03 07:48:04;;;;;;;22.88;12.38;;;19.60;96.70;;;;;;5011975;28;20100;-82
2023/10/03 07:50:43;;;;;;;17.25;10.90;;;19.60;96.70;;;;;;5015680;28;20543;-82
2023/10/03 07:53:12;;;;;;;19.38;11.10;;;19.70;96.70;;;;;;5006804;28;20499;-79
2023/10/03 07:55:41;;;;;;;20.15;10.82;;;19.70;96.70;;;;;;5006811;28;20053;-79
2023/10/03 07:58:14;;;;;;;19.90;11.25;;;19.80;96.70;;;;;;5007438;28;20451;-77
2023/10/03 08:00:45;;;;;;;22.55;11.32;;;20.30;96.70;;;;;;5018461;28;20500;-77
2023/10/03 08:03:13;;;;;;;16.60;10.95;;;20.40;96.70;;;;;;5014644;28;20189;-77
2023/10/03 08:05:44;;;;;;;20.23;10.70;;;20.40;96.70;;;;;;5005952;28;20049;-79
2023/10/03 08:08:12;;;;;;;19.50;10.43;;;20.40;96.70;;;;;;5007591;28;20124;-78
2023/10/03 08:10:40;;;;;;;16.25;10.35;;;20.50;96.70;;;;;;5005298;28;20488;-79
2023/10/03 08:13:09;;;;;;;14.15;9.75;;;20.70;96.70;;;;;;5001478;28;20041;-78
2023/10/03 08:15:37;;;;;;;19.23;10.80;;;20.90;96.70;;;;;;5004974;28;20046;-79
2023/10/03 08:18:06;;;;;;;16.23;10.45;;;20.90;96.70;;;;;;5006086;28;20121;-78
2023/10/03 08:20:36;;;;;;;17.35;10.85;;;21.00;96.70;;;;;;5010225;28;20525;-79
2023/10/03 08:23:06;;;;;;;18.77;11.55;;;21.20;96.70;;;;;;5006116;28;20082;-78
2023/10/03 08:25:35;;;;;;;16.17;11.52;;;21.20;96.70;;;;;;5005648;28;20127;-79
2023/10/03 08:28:09;;;;;;;15.48;11.68;;;21.30;96.70;;;;;;5009609;28;20100;-79
2023/10/03 08:30:51;;;;;;;15.93;11.70;;;21.20;96.70;;;;;;5008310;28;20504;-79
2023/10/03 08:33:20;;;;;;;14.13;11.00;;;21.20;96.70;;;;;;5005016;28;20054;-78
2023/10/03 08:35:48;;;;;;;12.13;9.25;;;21.30;96.70;;;;;;5008877;28;20124;-79
2023/10/03 08:38:19;;;;;;;13.55;10.20;;;21.40;96.70;;;;;;5016914;28;20128;-79
2023/10/03 08:40:51;;;;;;;12.55;9.43;;;21.60;96.70;;;;;;5036125;28;20604;-78
2023/10/03 08:43:25;;;;;;;10.95;7.90;;;21.60;96.70;;;;;;5008910;28;20042;-78
2023/10/03 08:45:57;;;;;;;12.18;7.88;;;21.70;96.70;;;;;;5006453;28;20054;-79
2023/10/03 08:48:31;;;;;;;11.30;8.32;;;21.90;96.70;;;;;;5006220;28;20590;-78
2023/10/03 08:51:04;;;;;;;10.40;8.10;;;21.90;96.70;;;;;;5004757;28;20041;-78
2023/10/03 08:53:34;;;;;;;10.27;8.00;;;21.90;96.70;;;;;;5007869;28;20046;-80
2023/10/03 08:56:03;;;;;;;28.75;10.30;;;22.00;96.70;;;;;;5014986;28;20050;-78
2023/10/03 08:58:32;;;;;;;13.43;10.05;;;22.10;96.70;;;;;;5007357;28;20049;-77
2023/10/03 09:01:02;;;;;;;14.10;9.20;;;22.20;96.70;;;;;;5003508;28;20530;-76
2023/10/03 09:03:47;;;;;;;10.43;7.85;;;22.30;96.70;;;;;;5004612;28;20458;-81
2023/10/03 09:06:20;;;;;;;10.27;8.23;;;22.50;96.70;;;;;;5006873;28;20435;-81
2023/10/03 09:08:51;;;;;;;14.60;10.77;;;22.60;96.70;;;;;;5010535;28;20108;-80
2023/10/03 09:11:28;;;;;;;11.73;9.15;;;22.70;96.70;;;;;;5004570;28;20570;-81
2023/10/03 09:13:59;;;;;;;11.95;10.20;;;22.70;96.70;;;;;;4990331;28;20430;-79
2023/10/03 09:16:28;;;;;;;13.65;10.85;;;22.70;96.70;;;;;;5006863;28;20595;-82
2023/10/03 09:18:57;;;;;;;13.73;12.05;;;22.70;96.70;;;;;;5006495;28;20053;-80
2023/10/03 09:21:27;;;;;;;14.70;11.60;;;22.80;96.70;;;;;;4988901;28;20563;-81
2023/10/03 09:24:01;;;;;;;12.18;10.25;;;22.80;96.70;;;;;;5008233;28;20188;-79
2023/10/03 09:26:47;;;;;;;15.57;11.60;;;22.90;96.70;;;;;;5005661;28;20156;-80
2023/10/03 09:29:30;;;;;;;11.70;10.10;;;23.10;96.70;;;;;;5008454;28;20116;-80
2023/10/03 09:32:07;;;;;;;11.00;9.98;;;23.10;96.70;;;;;;5036496;28;20042;-80
2023/10/03 09:34:40;;;;;;;9.70;8.80;;;23.30;96.70;;;;;;5008379;28;20050;-80
2023/10/03 09:37:09;;;;;;;12.15;10.07;;;23.40;96.70;;;;;;5004519;28;20050;-80
2023/10/03 09:39:40;;;;;;;11.75;10.50;;;23.60;96.70;;;;;;5006248;28;20046;-80
2023/10/03 09:42:15;;;;;;;11.90;10.70;;;23.60;96.70;;;;;;5004783;28;20050;-80
2023/10/03 09:44:45;;;;;;;11.20;10.15;;;23.70;96.70;;;;;;4996187;28;20050;-79
2023/10/03 09:47:13;;;;;;;11.23;9.70;;;23.80;96.70;;;;;;5005667;28;20077;-80
2023/10/03 09:49:42;;;;;;;11.40;10.30;;;23.90;96.70;;;;;;5003834;28;20045;-80
2023/10/03 09:52:22;;;;;;;10.85;9.75;;;23.90;96.70;;;;;;5005379;28;20062;-80
2023/10/03 09:54:54;;;;;;;12.00;10.18;;;24.00;96.70;;;;;;5006145;28;20049;-81
2023/10/03 09:57:23;;;;;;;12.23;10.98;;;24.10;96.70;;;;;;5006758;28;20129;-81
2023/10/03 09:59:52;;;;;;;14.00;10.70;;;24.20;96.70;;;;;;5005719;28;20569;-80
2023/10/03 10:02:30;;;;;;;16.58;12.15;;;24.40;96.70;;;;;;5004885;28;20054;-81
2023/10/03 10:05:06;;;;;;;12.55;10.43;;;24.50;96.70;;;;;;5005454;28;20125;-81
2023/10/03 10:07:43;;;;;;;14.43;11.05;;;24.50;96.70;;;;;;5006700;28;20068;-81
2023/10/03 10:10:14;;;;;;;13.13;10.13;;;24.50;96.70;;;;;;4998027;28;20464;-81
2023/10/03 10:13:13;;;;;;;15.13;11.48;;;24.60;96.70;;;;;;5005981;28;20124;-82
2023/10/03 10:16:28;;;;;;;13.10;10.07;;;24.70;96.70;;;;;;5005812;28;20050;-82
2023/10/03 10:18:59;;;;;;;12.30;10.55;;;24.70;96.70;;;;;;5005688;28;20038;-81
2023/10/03 10:21:31;;;;;;;11.48;9.73;;;24.90;96.70;;;;;;4987837;28;20046;-80
2023/10/03 10:24:27;;;;;;;11.70;10.50;;;24.90;96.70;;;;;;5004310;28;20042;-81
2023/10/03 10:26:59;;;;;;;12.95;9.70;;;24.90;96.70;;;;;;5004664;28;20053;-79
2023/10/03 10:29:35;;;;;;;12.90;9.73;;;25.00;96.70;;;;;;4995919;28;20049;-80
2023/10/03 10:32:17;;;;;;;8.38;7.40;;;25.20;96.70;;;;;;5005111;28;20065;-81
2023/10/03 10:34:46;;;;;;;10.32;8.23;;;25.20;96.70;;;;;;4987976;28;20049;-80
2023/10/03 10:37:18;;;;;;;11.55;7.80;;;25.40;96.70;;;;;;5009537;28;20088;-81
2023/10/03 10:40:29;;;;;;;7.95;6.63;;;25.40;96.70;;;;;;5003888;28;20637;-80
2023/10/03 10:43:06;;;;;;;8.45;7.38;;;25.50;96.70;;;;;;5004109;28;20206;-80
2023/10/03 10:45:37;;;;;;;9.50;6.38;;;25.50;96.70;;;;;;5004516;28;20497;-80
2023/10/03 10:48:07;;;;;;;9.40;7.00;;;25.70;96.70;;;;;;5004533;28;20132;-80
2023/10/03 10:51:10;;;;;;;7.82;7.00;;;25.90;96.70;;;;;;5005418;28;20042;-80
2023/10/03 10:53:41;;;;;;;9.40;6.22;;;25.80;96.70;;;;;;5003927;28;20065;-80
2023/10/03 10:56:10;;;;;;;9.20;6.60;;;25.80;96.70;;;;;;5003928;28;20508;-81
2023/10/03 10:58:51;;;;;;;8.50;6.75;;;26.00;96.70;;;;;;5004353;28;20512;-80
2023/10/03 11:01:20;;;;;;;9.20;6.57;;;26.10;96.70;;;;;;4996509;28;20061;-80
2023/10/03 11:03:49;;;;;;;10.40;6.10;;;26.20;96.70;;;;;;4988225;28;20053;-80
2023/10/03 11:06:19;;;;;;;7.05;6.18;;;26.20;96.70;;;;;;4987180;28;20061;-79
2023/10/03 11:08:48;;;;;;;9.30;6.45;;;26.30;96.70;;;;;;5004381;28;20041;-80
2023/10/03 11:11:17;;;;;;;8.52;6.35;;;26.50;96.70;;;;;;5006945;28;20049;-82
2023/10/03 11:13:48;;;;;;;9.18;5.30;;;26.60;96.70;;;;;;4998947;28;20137;-82
2023/10/03 11:16:26;;;;;;;9.32;5.53;;;26.70;96.70;;;;;;5006823;28;20135;-80
2023/10/03 11:18:56;;;;;;;5.80;5.18;;;26.80;96.70;;;;;;5007502;28;20046;-81
2023/10/03 11:21:25;;;;;;;5.63;5.05;;;26.90;96.70;;;;;;5008296;28;20096;-80
2023/10/03 11:24:13;;;;;;;6.53;5.20;;;27.10;96.70;;;;;;4991554;28;20079;-81
2023/10/03 11:26:46;;;;;;;9.20;5.20;;;27.30;96.70;;;;;;5006392;28;20061;-80
2023/10/03 11:29:39;;;;;;;6.60;4.85;;;27.50;96.70;;;;;;5008011;28;20046;-80
2023/10/03 11:32:19;;;;;;;6.80;4.80;;;27.50;96.70;;;;;;5000621;28;20049;-81
2023/10/03 11:34:48;;;;;;;6.05;3.95;;;27.60;96.70;;;;;;4987332;28;20534;-81
2023/10/03 11:37:30;;;;;;;6.30;4.53;;;27.70;96.70;;;;;;5004632;28;20042;-81
2023/10/03 11:40:10;;;;;;;8.60;4.40;;;27.80;96.70;;;;;;5015077;28;20041;-80
2023/10/03 11:42:50;;;;;;;5.65;3.92;;;28.00;96.70;;;;;;5008650;28;20042;-80
2023/10/03 11:45:20;;;;;;;7.05;4.53;;;28.00;96.70;;;;;;5007243;28;20077;-79
2023/10/03 11:48:07;;;;;;;5.55;4.72;;;27.90;96.70;;;;;;5008546;28;20086;-80
2023/10/03 11:50:37;;;;;;;7.15;4.47;;;27.90;96.70;;;;;;5007335;28;20046;-80
2023/10/03 11:53:08;;;;;;;6.57;4.63;;;28.00;96.70;;;;;;5007319;28;20053;-80
2023/10/03 11:55:38;;;;;;;9.68;5.20;;;28.10;96.70;;;;;;5005908;28;20042;-80
2023/10/03 11:58:06;;;;;;;7.15;5.15;;;28.10;96.70;;;;;;5006322;28;20053;-80
2023/10/03 12:00:36;;;;;;;6.63;5.38;;;28.10;96.70;;;;;;4998753;28;20515;-80
2023/10/03 12:03:09;;;;;;;6.70;5.10;;;28.00;96.70;;;;;;5007262;28;20408;-80
2023/10/03 12:05:42;;;;;;;8.32;5.07;;;28.00;96.70;;;;;;5007485;28;20069;-82
2023/10/03 12:08:10;;;;;;;7.22;5.25;;;28.10;96.70;;;;;;5007385;28;20053;-82
2023/10/03 12:10:41;;;;;;;8.32;5.05;;;28.20;96.70;;;;;;5008016;28;20046;-82
2023/10/03 12:13:27;;;;;;;10.93;6.07;;;28.30;96.70;;;;;;5004971;28;20097;-83
2023/10/03 12:15:57;;;;;;;8.00;5.57;;;28.20;96.70;;;;;;5005980;28;20052;-82
2023/10/03 12:18:26;;;;;;;9.15;5.43;;;28.20;96.70;;;;;;4989687;28;20246;-83
2023/10/03 12:20:55;;;;;;;6.60;5.22;;;28.30;96.70;;;;;;5005905;28;20049;-82
2023/10/03 12:23:23;;;;;;;6.97;5.38;;;28.30;96.70;;;;;;4989519;28;20088;-83
2023/10/03 12:25:51;;;;;;;7.65;6.30;;;28.40;96.70;;;;;;5005345;28;20050;-83
2023/10/03 12:28:21;;;;;;;6.82;5.60;;;28.50;96.70;;;;;;4989517;28;20062;-83
2023/10/03 12:30:53;;;;;;;8.10;6.30;;;28.60;96.70;;;;;;4971084;28;20058;-82
2023/10/03 12:33:22;;;;;;;7.78;6.50;;;28.60;96.70;;;;;;4999356;28;20156;-83
2023/10/03 12:35:50;;;;;;;7.00;6.18;;;28.60;96.70;;;;;;4987785;28;20097;-83
2023/10/03 12:38:18;;;;;;;8.02;6.70;;;28.70;96.70;;;;;;5005961;28;20633;-82
2023/10/03 12:40:47;;;;;;;6.85;6.25;;;28.60;96.70;;;;;;5005583;28;20075;-82
2023/10/03 12:43:16;;;;;;;7.95;6.28;;;28.60;96.70;;;;;;4989695;28;20085;-83
2023/10/03 12:45:44;;;;;;;7.82;6.30;;;28.70;96.70;;;;;;4989409;28;20045;-83
2023/10/03 12:48:12;;;;;;;8.65;5.95;;;28.60;96.70;;;;;;5006358;28;20572;-83
2023/10/03 12:50:42;;;;;;;6.80;5.93;;;28.80;96.70;;;;;;5006714;28;20046;-83
2023/10/03 12:53:11;;;;;;;13.95;5.85;;;28.80;96.70;;;;;;5007112;28;20524;-84
2023/10/03 12:55:39;;;;;;;5.53;4.57;;;28.90;96.70;;;;;;5006698;28;20049;-83
2023/10/03 12:58:07;;;;;;;5.28;4.20;;;29.00;96.70;;;;;;4989890;28;20120;-84
2023/10/03 13:00:36;;;;;;;5.28;4.45;;;29.00;96.70;;;;;;5006576;28;20714;-84
2023/10/03 13:03:04;;;;;;;6.28;3.65;;;29.00;96.70;;;;;;4989720;28;20077;-84